sensor_id;sensor_type;location;lat;lon;timestamp;pressure;altitude;pressure_sealevel;temperature;humidity
61324;BME280;47203;48.428;11.974;2023-03-23T00:00:09;96328.81;;;15.11;37.78
61324;BME280;47203;48.428;11.974;2023-03-23T00:02:15;96323.03;;;15.09;37.86
61324;BME280;47203;48.428;11.974;2023-03-23T00:04:20;96320.69;;;15.07;37.84
61324;BME280;47203;48.428;11.974;2023-03-23T00:06:29;96322.06;;;15.05;37.97
61324;BME280;47203;48.428;11.974;2023-03-23T00:08:39;96323.00;;;15.00;38.11
61324;BME280;47203;48.428;11.974;2023-03-23T00:10:48;96318.28;;;14.97;37.93
61324;BME280;47203;48.428;11.974;2023-03-23T00:12:54;96324.19;;;14.94;37.98
61324;BME280;47203;48.428;11.974;2023-03-23T00:14:59;96337.75;;;14.92;37.91
61324;BME280;47203;48.428;11.974;2023-03-23T00:17:05;96331.19;;;14.90;38.06
61324;BME280;47203;48.428;11.974;2023-03-23T00:19:12;96336.78;;;14.88;38.20
61324;BME280;47203;48.428;11.974;2023-03-23T00:21:17;96335.50;;;14.86;38.11
61324;BME280;47203;48.428;11.974;2023-03-23T00:23:25;96333.16;;;14.84;38.43
61324;BME280;47203;48.428;11.974;2023-03-23T00:25:33;96332.66;;;14.82;38.23
61324;BME280;47203;48.428;11.974;2023-03-23T00:27:38;96339.06;;;14.81;38.25
61324;BME280;47203;48.428;11.974;2023-03-23T00:29:44;96330.63;;;14.79;38.33
61324;BME280;47203;48.428;11.974;2023-03-23T00:31:52;96326.44;;;14.78;38.18
61324;BME280;47203;48.428;11.974;2023-03-23T00:33:59;96329.06;;;14.78;38.54
61324;BME280;47203;48.428;11.974;2023-03-23T00:36:07;96333.28;;;14.79;38.44
61324;BME280;47203;48.428;11.974;2023-03-23T00:38:13;96327.19;;;14.78;38.49
61324;BME280;47203;48.428;11.974;2023-03-23T00:40:17;96323.28;;;14.76;38.74
61324;BME280;47203;48.428;11.974;2023-03-23T00:42:25;96328.09;;;14.74;38.72
61324;BME280;47203;48.428;11.974;2023-03-23T00:44:32;96323.88;;;14.73;38.81
61324;BME280;47203;48.428;11.974;2023-03-23T00:46:38;96329.47;;;14.71;38.56
61324;BME280;47203;48.428;11.974;2023-03-23T00:48:47;96325.09;;;14.66;38.91
61324;BME280;47203;48.428;11.974;2023-03-23T00:50:52;96324.59;;;14.64;38.59
61324;BME280;47203;48.428;11.974;2023-03-23T00:52:58;96327.84;;;14.61;38.70
61324;BME280;47203;48.428;11.974;2023-03-23T00:55:04;96327.63;;;14.58;38.82
61324;BME280;47203;48.428;11.974;2023-03-23T00:57:09;96333.53;;;14.55;38.96
61324;BME280;47203;48.428;11.974;2023-03-23T00:59:16;96327.72;;;14.53;39.12
61324;BME280;47203;48.428;11.974;2023-03-23T01:01:22;96331.78;;;14.50;39.00
61324;BME280;47203;48.428;11.974;2023-03-23T01:03:26;96328.34;;;14.49;39.15
61324;BME280;47203;48.428;11.974;2023-03-23T01:05:34;96324.13;;;14.48;39.13
61324;BME280;47203;48.428;11.974;2023-03-23T01:07:40;96319.63;;;14.49;39.24
61324;BME280;47203;48.428;11.974;2023-03-23T01:09:46;96324.91;;;14.49;38.95
61324;BME280;47203;48.428;11.974;2023-03-23T01:11:51;96330.50;;;14.47;39.41
61324;BME280;47203;48.428;11.974;2023-03-23T01:13:58;96318.16;;;14.43;39.06
61324;BME280;47203;48.428;11.974;2023-03-23T01:16:06;96323.75;;;14.41;39.40
61324;BME280;47203;48.428;11.974;2023-03-23T01:18:11;96330.91;;;14.41;39.18
61324;BME280;47203;48.428;11.974;2023-03-23T01:20:16;96323.56;;;14.38;39.27
61324;BME280;47203;48.428;11.974;2023-03-23T01:22:21;96323.09;;;14.36;39.69
61324;BME280;47203;48.428;11.974;2023-03-23T01:24:27;96321.03;;;14.32;39.49
61324;BME280;47203;48.428;11.974;2023-03-23T01:26:32;96320.53;;;14.30;39.65
61324;BME280;47203;48.428;11.974;2023-03-23T01:28:38;96320.06;;;14.28;39.68
61324;BME280;47203;48.428;11.974;2023-03-23T01:30:43;96319.25;;;14.28;39.53
61324;BME280;47203;48.428;11.974;2023-03-23T01:32:51;96315.38;;;14.25;39.85
61324;BME280;47203;48.428;11.974;2023-03-23T01:34:57;96313.78;;;14.24;39.92
61324;BME280;47203;48.428;11.974;2023-03-23T01:37:03;96319.09;;;14.24;39.84
61324;BME280;47203;48.428;11.974;2023-03-23T01:39:08;96313.31;;;14.22;39.90
61324;BME280;47203;48.428;11.974;2023-03-23T01:41:17;96324.69;;;14.23;40.05
61324;BME280;47203;48.428;11.974;2023-03-23T01:43:22;96318.59;;;14.22;39.65
61324;BME280;47203;48.428;11.974;2023-03-23T01:45:31;96322.03;;;14.23;39.91
61324;BME280;47203;48.428;11.974;2023-03-23T01:47:37;96313.31;;;14.22;39.83
61324;BME280;47203;48.428;11.974;2023-03-23T01:49:46;96310.97;;;14.21;40.16
61324;BME280;47203;48.428;11.974;2023-03-23T01:51:56;96307.53;;;14.20;40.09
61324;BME280;47203;48.428;11.974;2023-03-23T01:54:03;96303.78;;;14.21;40.34
61324;BME280;47203;48.428;11.974;2023-03-23T01:56:09;96296.63;;;14.22;40.34
61324;BME280;47203;48.428;11.974;2023-03-23T01:58:17;96295.56;;;14.23;40.37
61324;BME280;47203;48.428;11.974;2023-03-23T02:00:27;96289.50;;;14.22;40.35
61324;BME280;47203;48.428;11.974;2023-03-23T02:02:32;96283.91;;;14.24;40.39
61324;BME280;47203;48.428;11.974;2023-03-23T02:04:40;96292.13;;;14.22;40.34
61324;BME280;47203;48.428;11.974;2023-03-23T02:06:48;96293.00;;;14.18;40.14
61324;BME280;47203;48.428;11.974;2023-03-23T02:08:57;96294.09;;;14.17;40.04
61324;BME280;47203;48.428;11.974;2023-03-23T02:11:13;96303.41;;;14.14;40.31
61324;BME280;47203;48.428;11.974;2023-03-23T02:13:23;96302.94;;;14.12;40.40
61324;BME280;47203;48.428;11.974;2023-03-23T02:15:39;96293.72;;;14.09;40.28
61324;BME280;47203;48.428;11.974;2023-03-23T02:17:52;96293.44;;;14.11;40.27
61324;BME280;47203;48.428;11.974;2023-03-23T02:20:10;96289.97;;;14.10;40.47
61324;BME280;47203;48.428;11.974;2023-03-23T02:22:43;96300.88;;;14.09;40.24
61324;BME280;47203;48.428;11.974;2023-03-23T02:24:56;96288.72;;;14.08;40.53
61324;BME280;47203;48.428;11.974;2023-03-23T02:27:04;96292.16;;;14.08;40.33
61324;BME280;47203;48.428;11.974;2023-03-23T02:32:00;96286.19;;;14.03;40.60
61324;BME280;47203;48.428;11.974;2023-03-23T02:34:17;96288.34;;;14.01;40.37
61324;BME280;47203;48.428;11.974;2023-03-23T02:36:25;96278.44;;;13.92;40.11
61324;BME280;47203;48.428;11.974;2023-03-23T02:38:39;96281.31;;;13.96;40.20
61324;BME280;47203;48.428;11.974;2023-03-23T02:40:54;96283.66;;;13.98;40.31
61324;BME280;47203;48.428;11.974;2023-03-23T02:43:03;96281.78;;;13.98;40.65
61324;BME280;47203;48.428;11.974;2023-03-23T02:45:13;96279.13;;;13.98;40.54
61324;BME280;47203;48.428;11.974;2023-03-23T02:47:22;96281.47;;;14.00;40.43
61324;BME280;47203;48.428;11.974;2023-03-23T02:49:32;96283.06;;;14.01;40.85
61324;BME280;47203;48.428;11.974;2023-03-23T02:51:39;96281.38;;;14.05;40.62
61324;BME280;47203;48.428;11.974;2023-03-23T02:53:45;96276.88;;;14.05;40.54
61324;BME280;47203;48.428;11.974;2023-03-23T02:55:53;96281.09;;;14.06;40.67
61324;BME280;47203;48.428;11.974;2023-03-23T02:58:03;96280.28;;;14.06;40.79
61324;BME280;47203;48.428;11.974;2023-03-23T03:00:13;96281.69;;;14.03;40.73
61324;BME280;47203;48.428;11.974;2023-03-23T03:02:22;96284.34;;;14.03;40.92
61324;BME280;47203;48.428;11.974;2023-03-23T03:04:32;96282.75;;;14.02;40.62
61324;BME280;47203;48.428;11.974;2023-03-23T03:06:47;96289.13;;;14.01;40.72
61324;BME280;47203;48.428;11.974;2023-03-23T03:09:01;96292.38;;;13.98;40.62
61324;BME280;47203;48.428;11.974;2023-03-23T03:11:11;96292.06;;;14.00;41.01
61324;BME280;47203;48.428;11.974;2023-03-23T03:13:25;96283.66;;;13.98;41.10
61324;BME280;47203;48.428;11.974;2023-03-23T03:15:41;96280.50;;;13.95;41.04
61324;BME280;47203;48.428;11.974;2023-03-23T03:17:53;96279.44;;;13.96;41.27
61324;BME280;47203;48.428;11.974;2023-03-23T03:20:04;96274.75;;;13.93;41.02
61324;BME280;47203;48.428;11.974;2023-03-23T03:22:13;96266.28;;;13.91;41.23
61324;BME280;47203;48.428;11.974;2023-03-23T03:24:20;96273.16;;;13.92;41.08
61324;BME280;47203;48.428;11.974;2023-03-23T03:26:27;96269.75;;;13.92;41.43
61324;BME280;47203;48.428;11.974;2023-03-23T03:28:49;96272.38;;;13.92;41.36
61324;BME280;47203;48.428;11.974;2023-03-23T03:30:56;96267.09;;;13.92;41.54
61324;BME280;47203;48.428;11.974;2023-03-23T03:33:03;96271.59;;;13.91;41.30
61324;BME280;47203;48.428;11.974;2023-03-23T03:35:10;96271.88;;;13.90;41.38
61324;BME280;47203;48.428;11.974;2023-03-23T03:37:17;96274.53;;;13.90;41.34
61324;BME280;47203;48.428;11.974;2023-03-23T03:39:26;96271.13;;;13.89;41.73
61324;BME280;47203;48.428;11.974;2023-03-23T03:41:31;96261.59;;;13.88;41.71
61324;BME280;47203;48.428;11.974;2023-03-23T03:43:36;96257.41;;;13.87;41.64
61324;BME280;47203;48.428;11.974;2023-03-23T03:45:42;96263.66;;;13.91;41.46
61324;BME280;47203;48.428;11.974;2023-03-23T03:47:47;96263.66;;;13.91;41.72
61324;BME280;47203;48.428;11.974;2023-03-23T03:49:52;96275.81;;;13.92;41.81
61324;BME280;47203;48.428;11.974;2023-03-23T03:52:01;96279.53;;;13.91;41.53
61324;BME280;47203;48.428;11.974;2023-03-23T03:54:14;96291.69;;;13.92;41.64
61324;BME280;47203;48.428;11.974;2023-03-23T03:56:19;96284.81;;;13.91;41.58
61324;BME280;47203;48.428;11.974;2023-03-23T03:58:38;96285.91;;;13.90;41.61
61324;BME280;47203;48.428;11.974;2023-03-23T04:00:59;96287.75;;;13.90;41.85
61324;BME280;47203;48.428;11.974;2023-03-23T04:03:09;96282.16;;;13.91;41.44
61324;BME280;47203;48.428;11.974;2023-03-23T04:05:21;96282.16;;;13.91;41.68
61324;BME280;47203;48.428;11.974;2023-03-23T04:07:29;96286.97;;;13.89;41.61
61324;BME280;47203;48.428;11.974;2023-03-23T04:09:40;96288.66;;;13.85;41.80
61324;BME280;47203;48.428;11.974;2023-03-23T04:11:52;96296.69;;;13.80;41.63
61324;BME280;47203;48.428;11.974;2023-03-23T04:14:16;96295.50;;;13.72;41.92
61324;BME280;47203;48.428;11.974;2023-03-23T04:16:22;96291.59;;;13.70;42.24
61324;BME280;47203;48.428;11.974;2023-03-23T04:18:28;96302.50;;;13.68;41.94
61324;BME280;47203;48.428;11.974;2023-03-23T04:20:34;96301.19;;;13.66;42.27
61324;BME280;47203;48.428;11.974;2023-03-23T04:22:42;96305.22;;;13.63;42.16
61324;BME280;47203;48.428;11.974;2023-03-23T04:24:51;96299.44;;;13.61;42.29
61324;BME280;47203;48.428;11.974;2023-03-23T04:26:59;96307.38;;;13.61;42.27
61324;BME280;47203;48.428;11.974;2023-03-23T04:29:05;96306.09;;;13.58;42.26
61324;BME280;47203;48.428;11.974;2023-03-23T04:31:10;96315.59;;;13.59;42.31
61324;BME280;47203;48.428;11.974;2023-03-23T04:33:22;96319.78;;;13.60;42.30
61324;BME280;47203;48.428;11.974;2023-03-23T04:35:49;96322.94;;;13.63;42.43
61324;BME280;47203;48.428;11.974;2023-03-23T04:38:15;96321.38;;;13.61;42.06
61324;BME280;47203;48.428;11.974;2023-03-23T04:40:27;96312.97;;;13.59;42.34
61324;BME280;47203;48.428;11.974;2023-03-23T04:42:53;96317.25;;;13.55;42.52
61324;BME280;47203;48.428;11.974;2023-03-23T04:45:18;96315.97;;;13.53;42.59
61324;BME280;47203;48.428;11.974;2023-03-23T04:47:26;96304.13;;;13.50;42.50
61324;BME280;47203;48.428;11.974;2023-03-23T04:49:34;96296.69;;;13.52;42.48
61324;BME280;47203;48.428;11.974;2023-03-23T04:51:52;96297.47;;;13.53;42.64
61324;BME280;47203;48.428;11.974;2023-03-23T04:54:19;96298.53;;;13.52;42.55
61324;BME280;47203;48.428;11.974;2023-03-23T04:56:28;96295.59;;;13.53;42.75
61324;BME280;47203;48.428;11.974;2023-03-23T04:58:39;96306.47;;;13.52;42.60
61324;BME280;47203;48.428;11.974;2023-03-23T05:01:04;96310.50;;;13.49;42.75
61324;BME280;47203;48.428;11.974;2023-03-23T05:03:18;96317.44;;;13.45;42.92
61324;BME280;47203;48.428;11.974;2023-03-23T05:05:27;96326.75;;;13.42;42.87
61324;BME280;47203;48.428;11.974;2023-03-23T05:07:39;96318.31;;;13.40;42.82
61324;BME280;47203;48.428;11.974;2023-03-23T05:09:49;96329.16;;;13.39;43.26
61324;BME280;47203;48.428;11.974;2023-03-23T05:11:57;96330.25;;;13.38;43.17
61324;BME280;47203;48.428;11.974;2023-03-23T05:14:03;96325.75;;;13.38;43.15
61324;BME280;47203;48.428;11.974;2023-03-23T05:16:08;96329.47;;;13.37;42.91
61324;BME280;47203;48.428;11.974;2023-03-23T05:18:15;96321.53;;;13.37;42.98
61324;BME280;47203;48.428;11.974;2023-03-23T05:20:22;96333.38;;;13.40;43.18
61324;BME280;47203;48.428;11.974;2023-03-23T05:22:34;96323.63;;;13.40;43.30
61324;BME280;47203;48.428;11.974;2023-03-23T05:24:41;96324.38;;;13.41;43.09
61324;BME280;47203;48.428;11.974;2023-03-23T05:26:49;96313.53;;;13.42;43.12
61324;BME280;47203;48.428;11.974;2023-03-23T05:29:00;96321.63;;;13.46;43.37
61324;BME280;47203;48.428;11.974;2023-03-23T05:31:17;96319.50;;;13.48;43.12
61324;BME280;47203;48.428;11.974;2023-03-23T05:33:22;96313.63;;;13.51;43.26
61324;BME280;47203;48.428;11.974;2023-03-23T05:35:32;96311.16;;;13.55;43.52
61324;BME280;47203;48.428;11.974;2023-03-23T05:37:40;96319.63;;;13.57;43.25
61324;BME280;47203;48.428;11.974;2023-03-23T05:39:46;96315.88;;;13.58;43.35
61324;BME280;47203;48.428;11.974;2023-03-23T05:42:27;96321.75;;;13.55;43.58
61324;BME280;47203;48.428;11.974;2023-03-23T05:44:42;96316.16;;;13.56;43.59
61324;BME280;47203;48.428;11.974;2023-03-23T05:46:47;96320.38;;;13.57;43.24
61324;BME280;47203;48.428;11.974;2023-03-23T05:48:52;96323.31;;;13.56;43.46
61324;BME280;47203;48.428;11.974;2023-03-23T05:51:05;96328.81;;;13.59;43.32
61324;BME280;47203;48.428;11.974;2023-03-23T05:53:13;96327.72;;;13.60;43.43
61324;BME280;47203;48.428;11.974;2023-03-23T05:55:18;96333.03;;;13.60;43.60
61324;BME280;47203;48.428;11.974;2023-03-23T05:57:36;96318.25;;;13.59;43.77
61324;BME280;47203;48.428;11.974;2023-03-23T05:59:48;96318.72;;;13.61;43.46
61324;BME280;47203;48.428;11.974;2023-03-23T06:01:57;96299.16;;;13.63;43.50
61324;BME280;47203;48.428;11.974;2023-03-23T06:04:03;96300.41;;;13.65;43.71
61324;BME280;47203;48.428;11.974;2023-03-23T06:06:18;96310.69;;;13.67;43.55
61324;BME280;47203;48.428;11.974;2023-03-23T06:08:31;96300.09;;;13.67;43.53
61324;BME280;47203;48.428;11.974;2023-03-23T06:10:39;96291.59;;;13.70;43.92
61324;BME280;47203;48.428;11.974;2023-03-23T06:12:49;96297.66;;;13.70;43.91
61324;BME280;47203;48.428;11.974;2023-03-23T06:15:15;96294.72;;;13.72;43.69
61324;BME280;47203;48.428;11.974;2023-03-23T06:17:39;96277.50;;;13.74;43.92
61324;BME280;47203;48.428;11.974;2023-03-23T06:19:46;96275.84;;;13.78;43.73
61324;BME280;47203;48.428;11.974;2023-03-23T06:21:53;96265.44;;;13.82;43.82
61324;BME280;47203;48.428;11.974;2023-03-23T06:24:14;96266.41;;;13.86;43.56
61324;BME280;47203;48.428;11.974;2023-03-23T06:26:20;96263.19;;;13.89;43.85
61324;BME280;47203;48.428;11.974;2023-03-23T06:28:34;96255.41;;;13.93;43.91
61324;BME280;47203;48.428;11.974;2023-03-23T06:30:40;96260.31;;;14.00;43.76
61324;BME280;47203;48.428;11.974;2023-03-23T06:32:45;96258.66;;;14.04;43.91
61324;BME280;47203;48.428;11.974;2023-03-23T06:34:55;96275.97;;;14.10;43.78
61324;BME280;47203;48.428;11.974;2023-03-23T06:37:23;96249.22;;;14.11;43.82
61324;BME280;47203;48.428;11.974;2023-03-23T06:39:36;96254.41;;;14.17;43.83
61324;BME280;47203;48.428;11.974;2023-03-23T06:41:53;96245.56;;;14.21;43.80
61324;BME280;47203;48.428;11.974;2023-03-23T06:44:01;96242.78;;;14.26;43.50
61324;BME280;47203;48.428;11.974;2023-03-23T06:46:07;96243.47;;;14.32;43.71
61324;BME280;47203;48.428;11.974;2023-03-23T06:48:15;96233.53;;;14.38;43.29
61324;BME280;47203;48.428;11.974;2023-03-23T06:50:20;96247.91;;;14.45;43.54
61324;BME280;47203;48.428;11.974;2023-03-23T06:52:26;96237.22;;;14.51;43.45
61324;BME280;47203;48.428;11.974;2023-03-23T06:54:31;96256.13;;;14.58;43.34
61324;BME280;47203;48.428;11.974;2023-03-23T06:56:37;96239.81;;;14.64;43.58
61324;BME280;47203;48.428;11.974;2023-03-23T06:58:44;96248.44;;;14.70;43.38
61324;BME280;47203;48.428;11.974;2023-03-23T07:00:56;96260.50;;;14.76;43.48
61324;BME280;47203;48.428;11.974;2023-03-23T07:03:11;96274.69;;;14.80;43.42
61324;BME280;47203;48.428;11.974;2023-03-23T07:05:17;96268.50;;;14.85;43.38
61324;BME280;47203;48.428;11.974;2023-03-23T07:07:24;96272.69;;;14.86;43.58
61324;BME280;47203;48.428;11.974;2023-03-23T07:09:44;96269.88;;;14.82;43.81
61324;BME280;47203;48.428;11.974;2023-03-23T07:11:53;96283.91;;;14.83;43.81
61324;BME280;47203;48.428;11.974;2023-03-23T07:14:08;96291.38;;;14.81;43.95
61324;BME280;47203;48.428;11.974;2023-03-23T07:16:17;96302.28;;;14.79;43.91
61324;BME280;47203;48.428;11.974;2023-03-23T07:18:22;96302.75;;;14.81;44.37
61324;BME280;47203;48.428;11.974;2023-03-23T07:20:28;96314.13;;;14.82;44.15
61324;BME280;47203;48.428;11.974;2023-03-23T07:22:33;96305.09;;;14.83;44.15
61324;BME280;47203;48.428;11.974;2023-03-23T07:24:46;96299.50;;;14.84;44.27
61324;BME280;47203;48.428;11.974;2023-03-23T07:26:58;96326.19;;;14.88;44.42
61324;BME280;47203;48.428;11.974;2023-03-23T07:29:04;96306.44;;;14.94;44.58
61324;BME280;47203;48.428;11.974;2023-03-23T07:31:17;96297.56;;;14.99;44.53
61324;BME280;47203;48.428;11.974;2023-03-23T07:33:22;96309.28;;;15.07;44.69
61324;BME280;47203;48.428;11.974;2023-03-23T07:35:30;96305.75;;;15.11;44.41
61324;BME280;47203;48.428;11.974;2023-03-23T07:37:38;96294.25;;;15.16;44.35
61324;BME280;47203;48.428;11.974;2023-03-23T07:39:43;96303.00;;;15.25;44.40
61324;BME280;47203;48.428;11.974;2023-03-23T07:41:49;96302.59;;;15.32;44.38
61324;BME280;47203;48.428;11.974;2023-03-23T07:44:07;96304.47;;;15.40;44.37
61324;BME280;47203;48.428;11.974;2023-03-23T07:46:18;96294.72;;;15.49;44.09
61324;BME280;47203;48.428;11.974;2023-03-23T07:48:45;96291.00;;;15.59;44.25
61324;BME280;47203;48.428;11.974;2023-03-23T07:50:50;96300.84;;;15.67;43.83
61324;BME280;47203;48.428;11.974;2023-03-23T07:52:57;96315.53;;;15.74;44.19
61324;BME280;47203;48.428;11.974;2023-03-23T07:55:07;96298.41;;;15.80;44.08
61324;BME280;47203;48.428;11.974;2023-03-23T07:57:26;96297.38;;;15.90;44.14
61324;BME280;47203;48.428;11.974;2023-03-23T07:59:32;96294.91;;;16.02;43.78
61324;BME280;47203;48.428;11.974;2023-03-23T08:01:41;96287.56;;;16.16;43.65
61324;BME280;47203;48.428;11.974;2023-03-23T08:04:03;96291.03;;;16.34;43.61
61324;BME280;47203;48.428;11.974;2023-03-23T08:06:32;96302.44;;;16.52;43.48
61324;BME280;47203;48.428;11.974;2023-03-23T08:08:52;96295.56;;;16.69;43.01
61324;BME280;47203;48.428;11.974;2023-03-23T08:11:18;96306.50;;;16.85;43.47
61324;BME280;47203;48.428;11.974;2023-03-23T08:13:46;96294.97;;;16.98;42.60
61324;BME280;47203;48.428;11.974;2023-03-23T08:15:54;96297.88;;;17.05;42.89
61324;BME280;47203;48.428;11.974;2023-03-23T08:18:14;96305.72;;;17.10;42.36
61324;BME280;47203;48.428;11.974;2023-03-23T08:20:51;96292.09;;;17.12;42.31
61324;BME280;47203;48.428;11.974;2023-03-23T08:23:06;96294.91;;;17.16;42.53
61324;BME280;47203;48.428;11.974;2023-03-23T08:25:26;96299.13;;;17.17;42.58
61324;BME280;47203;48.428;11.974;2023-03-23T08:27:51;96289.88;;;17.14;42.68
61324;BME280;47203;48.428;11.974;2023-03-23T08:30:10;96289.75;;;17.10;42.40
61324;BME280;47203;48.428;11.974;2023-03-23T08:32:28;96290.53;;;17.11;42.46
61324;BME280;47203;48.428;11.974;2023-03-23T08:34:51;96301.97;;;17.12;42.77
61324;BME280;47203;48.428;11.974;2023-03-23T08:37:16;96311.03;;;17.10;42.51
61324;BME280;47203;48.428;11.974;2023-03-23T08:39:40;96295.06;;;17.10;42.59
61324;BME280;47203;48.428;11.974;2023-03-23T08:42:02;96291.31;;;17.12;42.57
61324;BME280;47203;48.428;11.974;2023-03-23T08:44:18;96316.03;;;17.12;42.49
61324;BME280;47203;48.428;11.974;2023-03-23T08:46:45;96299.31;;;17.12;42.46
61324;BME280;47203;48.428;11.974;2023-03-23T08:49:10;96299.00;;;17.13;42.81
61324;BME280;47203;48.428;11.974;2023-03-23T08:51:30;96301.00;;;17.16;42.35
61324;BME280;47203;48.428;11.974;2023-03-23T08:54:01;96303.34;;;17.18;42.58
61324;BME280;47203;48.428;11.974;2023-03-23T08:56:37;96295.19;;;17.23;42.26
61324;BME280;47203;48.428;11.974;2023-03-23T08:59:00;96309.41;;;17.27;42.30
61324;BME280;47203;48.428;11.974;2023-03-23T09:01:10;96310.03;;;17.33;42.18
61324;BME280;47203;48.428;11.974;2023-03-23T09:03:17;96302.22;;;17.36;42.05
61324;BME280;47203;48.428;11.974;2023-03-23T09:05:45;96305.00;;;17.40;42.13
61324;BME280;47203;48.428;11.974;2023-03-23T09:07:54;96301.06;;;17.46;42.05
61324;BME280;47203;48.428;11.974;2023-03-23T09:10:00;96296.03;;;17.53;42.16
61324;BME280;47203;48.428;11.974;2023-03-23T09:12:06;96311.50;;;17.60;42.05
61324;BME280;47203;48.428;11.974;2023-03-23T09:14:11;96303.03;;;17.67;41.92
61324;BME280;47203;48.428;11.974;2023-03-23T09:16:16;96319.28;;;17.74;41.96
61324;BME280;47203;48.428;11.974;2023-03-23T09:18:21;96310.16;;;17.84;41.71
61324;BME280;47203;48.428;11.974;2023-03-23T09:20:27;96315.47;;;17.92;41.93
61324;BME280;47203;48.428;11.974;2023-03-23T09:22:32;96323.84;;;18.03;41.66
61324;BME280;47203;48.428;11.974;2023-03-23T09:24:40;96323.47;;;18.13;41.37
61324;BME280;47203;48.428;11.974;2023-03-23T09:26:45;96326.09;;;18.22;41.02
61324;BME280;47203;48.428;11.974;2023-03-23T09:28:50;96330.59;;;18.30;40.85
61324;BME280;47203;48.428;11.974;2023-03-23T09:30:55;96332.88;;;18.41;41.02
61324;BME280;47203;48.428;11.974;2023-03-23T09:33:01;96336.72;;;18.52;41.04
61324;BME280;47203;48.428;11.974;2023-03-23T09:35:08;96329.09;;;18.63;40.77
61324;BME280;47203;48.428;11.974;2023-03-23T09:37:14;96329.19;;;18.75;40.76
61324;BME280;47203;48.428;11.974;2023-03-23T09:39:19;96324.72;;;18.88;40.64
61324;BME280;47203;48.428;11.974;2023-03-23T09:41:45;96327.84;;;19.02;40.74
61324;BME280;47203;48.428;11.974;2023-03-23T09:44:01;96333.25;;;19.15;40.04
61324;BME280;47203;48.428;11.974;2023-03-23T09:46:20;96335.81;;;19.24;40.06
61324;BME280;47203;48.428;11.974;2023-03-23T09:48:38;96330.28;;;19.29;40.30
61324;BME280;47203;48.428;11.974;2023-03-23T09:50:48;96331.31;;;19.36;39.73
61324;BME280;47203;48.428;11.974;2023-03-23T09:52:58;96335.75;;;19.45;39.59
61324;BME280;47203;48.428;11.974;2023-03-23T09:55:09;96337.56;;;19.53;39.33
61324;BME280;47203;48.428;11.974;2023-03-23T09:57:22;96323.00;;;19.63;38.99
61324;BME280;47203;48.428;11.974;2023-03-23T09:59:31;96326.13;;;19.77;38.88
61324;BME280;47203;48.428;11.974;2023-03-23T10:01:40;96321.72;;;19.94;38.59
61324;BME280;47203;48.428;11.974;2023-03-23T10:03:47;96324.91;;;20.12;37.85
61324;BME280;47203;48.428;11.974;2023-03-23T10:05:54;96328.69;;;20.23;37.90
61324;BME280;47203;48.428;11.974;2023-03-23T10:08:01;96322.47;;;20.31;37.43
61324;BME280;47203;48.428;11.974;2023-03-23T10:10:12;96324.88;;;20.36;37.25
61324;BME280;47203;48.428;11.974;2023-03-23T10:12:27;96337.22;;;20.41;37.34
61324;BME280;47203;48.428;11.974;2023-03-23T10:14:43;96334.22;;;20.43;36.99
61324;BME280;47203;48.428;11.974;2023-03-23T10:16:58;96330.78;;;20.42;36.60
61324;BME280;47203;48.428;11.974;2023-03-23T10:19:11;96340.59;;;20.38;36.14
61324;BME280;47203;48.428;11.974;2023-03-23T10:21:20;96326.78;;;20.36;36.35
61324;BME280;47203;48.428;11.974;2023-03-23T10:23:44;96324.78;;;20.33;36.17
61324;BME280;47203;48.428;11.974;2023-03-23T10:25:53;96319.53;;;20.36;35.97
61324;BME280;47203;48.428;11.974;2023-03-23T10:28:05;96326.44;;;20.37;35.62
61324;BME280;47203;48.428;11.974;2023-03-23T10:30:17;96340.25;;;20.39;35.73
61324;BME280;47203;48.428;11.974;2023-03-23T10:32:44;96321.09;;;20.37;35.68
61324;BME280;47203;48.428;11.974;2023-03-23T10:34:53;96326.53;;;20.41;35.69
61324;BME280;47203;48.428;11.974;2023-03-23T10:37:03;96331.22;;;20.44;35.61
61324;BME280;47203;48.428;11.974;2023-03-23T10:39:12;96333.25;;;20.47;35.37
61324;BME280;47203;48.428;11.974;2023-03-23T10:41:19;96331.00;;;20.49;35.26
61324;BME280;47203;48.428;11.974;2023-03-23T10:43:29;96332.91;;;20.49;35.13
61324;BME280;47203;48.428;11.974;2023-03-23T10:45:35;96326.41;;;20.50;34.95
61324;BME280;47203;48.428;11.974;2023-03-23T10:47:52;96342.78;;;20.48;35.26
61324;BME280;47203;48.428;11.974;2023-03-23T10:49:59;96327.88;;;20.47;35.06
61324;BME280;47203;48.428;11.974;2023-03-23T10:52:15;96331.88;;;20.41;35.12
61324;BME280;47203;48.428;11.974;2023-03-23T10:54:27;96329.47;;;20.36;35.35
61324;BME280;47203;48.428;11.974;2023-03-23T10:56:38;96335.16;;;20.34;35.32
61324;BME280;47203;48.428;11.974;2023-03-23T10:59:11;96328.16;;;20.30;35.30
61324;BME280;47203;48.428;11.974;2023-03-23T11:01:18;96330.03;;;20.29;35.67
61324;BME280;47203;48.428;11.974;2023-03-23T11:03:40;96328.78;;;20.27;35.35
61324;BME280;47203;48.428;11.974;2023-03-23T11:05:49;96328.03;;;20.26;35.47
61324;BME280;47203;48.428;11.974;2023-03-23T11:07:56;96329.13;;;20.25;35.34
61324;BME280;47203;48.428;11.974;2023-03-23T11:10:22;96330.16;;;20.20;35.32
61324;BME280;47203;48.428;11.974;2023-03-23T11:12:33;96327.47;;;20.20;35.56
61324;BME280;47203;48.428;11.974;2023-03-23T11:14:40;96338.16;;;20.20;35.51
61324;BME280;47203;48.428;11.974;2023-03-23T11:16:50;96337.06;;;20.21;35.67
61324;BME280;47203;48.428;11.974;2023-03-23T11:19:13;96330.94;;;20.21;35.14
61324;BME280;47203;48.428;11.974;2023-03-23T11:21:20;96329.47;;;20.23;35.19
61324;BME280;47203;48.428;11.974;2023-03-23T11:23:27;96327.59;;;20.24;35.59
61324;BME280;47203;48.428;11.974;2023-03-23T11:25:33;96331.03;;;20.25;35.35
61324;BME280;47203;48.428;11.974;2023-03-23T11:27:38;96329.59;;;20.27;35.23